Etusivu
METAR-TAF:

METAR-TAF

Lentoasemat :

Mar del Plata, Argentiina

Leveyspiiri: 37-56S, Pituuspiiri: 057-35W, korkeus merenpinnasta: 18 m

Tämänhetkinen sää

Tämä raportti tehtiin 18 minuuttia sitten, kello 14.00 UTC
Tuuli 11 kn idästä/koillisesta
Lämpötila 26°C
Kosteus 79%
Ilmanpaine 1006 hPa
Näkyvyys 10 km tai enemmän
Muutamia pilviä 1500 ft:n korkeudessa
Hajonneita pilviä 2400 ft:n korkeudessa

METAR: SAZM 221400Z 07011KT 9999 FEW015 BKN024 26/22 Q1006

Aika: 11:18 (14:18 UTC)

Sääennuste

Tämä raportti tehtiin 3 tuntia ja 18 minuuttia sitten, kello 11.00 UTC
Ennuste voimassa 22. päivästä klo 12 UTC - 23. päivään klo 12 UTC
Tuuli 10 kn koillisesta
Näkyvyys 10 km tai enemmän
Hajanaisia pilviä 2500 ft:n korkeudessa
Tulossa
23. päivästä klo 01 UTC - 23. päivään klo 03 UTC
Tuuli 5 kn pohjoisesta
Näkyvyys: 5000 m
utua

TAF: SAZM 221100Z 2212/2312 05010KT 9999 SCT025 TX28/2218Z TN17/2309Z BECMG 2301/2303 36005KT 5000 BR NSC

Säähavainnot ja -ennusteet yli 4000 lentoasemalta (METAR- ja TAF-raportit).

Käytössä olevat sääasemat on merkitty karttaan keltaisilla ja punaisilla pisteillä.

Aseta hiiri pisteen päälle nähdäksesi sääaseman nimen.

Klikkaa sitten nähdäksesi säähavainnot ja -ennusteet.

Kartan vaihtaminen: klikkaa mustalla rastilla varustettuja vihreitä pisteitä, niin voit zoomata sisään; viivalla varustettua vihreää pistettä, niin voit zoomata ulos tai vihreitä nuolia, niin pääset viereisille kartoille.


METAR-TAF: